createdAt,value
2023-01-21T00:00:09.073Z,1021
2023-01-21T00:01:09.407Z,1021
2023-01-21T00:02:09.401Z,1021
2023-01-21T00:03:09.415Z,1021
2023-01-21T00:04:08.677Z,1021
2023-01-21T00:05:08.820Z,1021
2023-01-21T00:06:08.958Z,1021
2023-01-21T00:07:09.416Z,1021
2023-01-21T00:08:08.813Z,1021
2023-01-21T00:09:08.814Z,1021
2023-01-21T00:10:08.479Z,1021
2023-01-21T00:11:09.391Z,1021
2023-01-21T00:12:08.560Z,1021
2023-01-21T00:13:08.820Z,1021
2023-01-21T00:14:08.973Z,1021
2023-01-21T00:15:09.421Z,1021
2023-01-21T00:16:09.290Z,1021
2023-01-21T00:17:08.186Z,1021
2023-01-21T00:18:08.850Z,1021
2023-01-21T00:19:08.700Z,1021
2023-01-21T00:20:08.964Z,1021
2023-01-21T00:21:09.110Z,1021
2023-01-21T00:22:08.481Z,1021
2023-01-21T00:23:08.698Z,1021
2023-01-21T00:24:08.835Z,1021
2023-01-21T00:25:08.594Z,1021
2023-01-21T00:26:09.373Z,1021
2023-01-21T00:27:08.492Z,1021
2023-01-21T00:28:09.238Z,1021
2023-01-21T00:29:09.118Z,1021
2023-01-21T00:30:08.810Z,1021
2023-01-21T00:31:09.283Z,1021
2023-01-21T00:32:09.087Z,1021
2023-01-21T00:33:09.115Z,1021
2023-01-21T00:34:09.463Z,1021
2023-01-21T00:35:09.121Z,1021
2023-01-21T00:36:08.538Z,1021
2023-01-21T00:37:09.472Z,1021
2023-01-21T00:38:08.988Z,1021
2023-01-21T00:39:07.524Z,1021
2023-01-21T00:40:10.718Z,1021
2023-01-21T00:41:08.477Z,1021
2023-01-21T00:42:08.859Z,1021
2023-01-21T00:43:09.360Z,1021
2023-01-21T00:44:09.134Z,1021
2023-01-21T00:45:08.832Z,1021
2023-01-21T00:46:09.013Z,1021
2023-01-21T00:47:09.562Z,1021
2023-01-21T00:48:08.993Z,1021
2023-01-21T00:49:08.999Z,1021
2023-01-21T00:50:09.808Z,1021
2023-01-21T00:51:09.071Z,1021
2023-01-21T00:52:09.395Z,1021
2023-01-21T00:53:09.127Z,1021
2023-01-21T00:54:09.109Z,1021
2023-01-21T00:55:09.461Z,1021
2023-01-21T00:56:08.482Z,1021
2023-01-21T00:57:09.147Z,1021
2023-01-21T00:58:08.487Z,1021
2023-01-21T00:59:09.460Z,1021
2023-01-21T01:00:09.485Z,1021
2023-01-21T01:01:08.990Z,1021
2023-01-21T01:02:08.324Z,1022
2023-01-21T01:03:09.410Z,1022
2023-01-21T01:04:09.637Z,1022
2023-01-21T01:05:08.736Z,1022
2023-01-21T01:06:09.279Z,1022
2023-01-21T01:07:08.730Z,1022
2023-01-21T01:08:09.011Z,1022
2023-01-21T01:09:08.896Z,1022
2023-01-21T01:10:09.426Z,1022
2023-01-21T01:11:09.318Z,1022
2023-01-21T01:12:09.164Z,1022
2023-01-21T01:13:08.885Z,1022
2023-01-21T01:14:09.431Z,1022
2023-01-21T01:15:09.973Z,1022
2023-01-21T01:16:09.489Z,1022
2023-01-21T01:17:09.494Z,1022
2023-01-21T01:18:09.492Z,1022
2023-01-21T01:19:09.901Z,1022
2023-01-21T01:20:10.028Z,1022
2023-01-21T01:21:09.028Z,1022
2023-01-21T01:22:09.397Z,1022
2023-01-21T01:23:08.534Z,1022
2023-01-21T01:24:07.891Z,1022
2023-01-21T01:25:09.629Z,1022
2023-01-21T01:26:09.034Z,1022
2023-01-21T01:27:09.731Z,1022
2023-01-21T01:28:09.022Z,1022
2023-01-21T01:29:08.895Z,1022
2023-01-21T01:30:09.298Z,1022
2023-01-21T01:31:09.639Z,1022
2023-01-21T01:32:08.511Z,1022
2023-01-21T01:33:09.045Z,1022
2023-01-21T01:34:09.033Z,1022
2023-01-21T01:35:09.045Z,1022
2023-01-21T01:36:09.274Z,1022
2023-01-21T01:37:08.906Z,1022
2023-01-21T01:38:09.416Z,1022
2023-01-21T01:39:08.464Z,1022
2023-01-21T01:40:09.904Z,1022
2023-01-21T01:41:08.562Z,1022
2023-01-21T01:42:09.340Z,1022
2023-01-21T01:43:08.774Z,1022
2023-01-21T01:44:09.646Z,1022
2023-01-21T01:45:09.464Z,1022
2023-01-21T01:46:09.355Z,1022
2023-01-21T01:47:08.787Z,1022
2023-01-21T01:48:09.491Z,1022
2023-01-21T01:49:08.487Z,1022
2023-01-21T01:50:08.531Z,1022
2023-01-21T01:51:10.181Z,1022
2023-01-21T01:52:08.478Z,1022
2023-01-21T01:53:08.470Z,1023
2023-01-21T01:54:09.719Z,1022
2023-01-21T01:55:09.338Z,1022
2023-01-21T01:56:10.646Z,1022
2023-01-21T01:57:09.191Z,1022
2023-01-21T01:58:08.484Z,1023
2023-01-21T01:59:09.477Z,1023
2023-01-21T02:00:09.204Z,1023
2023-01-21T02:01:08.465Z,1022
2023-01-21T02:02:09.196Z,1023
2023-01-21T02:03:09.010Z,1023
2023-01-21T02:04:08.489Z,1023
2023-01-21T02:05:09.060Z,1023
2023-01-21T02:06:09.068Z,1023
2023-01-21T02:07:09.505Z,1023
2023-01-21T02:08:08.468Z,1023
2023-01-21T02:09:07.315Z,1023
2023-01-21T02:10:09.351Z,1023
2023-01-21T02:11:11.286Z,1023
2023-01-21T02:12:09.576Z,1023
2023-01-21T02:13:09.092Z,1023
2023-01-21T02:14:08.484Z,1023
2023-01-21T02:15:08.458Z,1023
2023-01-21T02:16:09.118Z,1023
2023-01-21T02:17:09.217Z,1023
2023-01-21T02:18:09.328Z,1023
2023-01-21T02:19:09.514Z,1023
2023-01-21T02:20:08.941Z,1023
2023-01-21T02:21:09.387Z,1023
2023-01-21T02:22:08.957Z,1023
2023-01-21T02:23:09.354Z,1023
2023-01-21T02:24:08.807Z,1023
2023-01-21T02:25:08.956Z,1023
2023-01-21T02:26:08.822Z,1023
2023-01-21T02:27:09.892Z,1023
2023-01-21T02:28:08.546Z,1023
2023-01-21T02:29:08.958Z,1023
2023-01-21T02:30:09.097Z,1023
2023-01-21T02:31:09.356Z,1023
2023-01-21T02:32:08.961Z,1023
2023-01-21T02:33:09.635Z,1023
2023-01-21T02:34:09.113Z,1023
2023-01-21T02:35:09.766Z,1023
2023-01-21T02:36:09.101Z,1023
2023-01-21T02:37:08.961Z,1023
2023-01-21T02:38:08.834Z,1023
2023-01-21T02:39:08.931Z,1023
2023-01-21T02:40:08.497Z,1023
2023-01-21T02:41:09.238Z,1023
2023-01-21T02:42:08.522Z,1023
2023-01-21T02:43:09.985Z,1023
2023-01-21T02:44:09.399Z,1023
2023-01-21T02:45:09.776Z,1023
2023-01-21T02:46:09.080Z,1023
2023-01-21T02:47:09.352Z,1023
2023-01-21T02:48:09.111Z,1023
2023-01-21T02:49:09.247Z,1023
2023-01-21T02:50:08.476Z,1023
2023-01-21T02:51:09.345Z,1023
2023-01-21T02:52:08.476Z,1023
2023-01-21T02:53:08.653Z,1023
2023-01-21T02:55:10.006Z,1023
2023-01-21T02:56:08.660Z,1023
2023-01-21T02:57:09.105Z,1023
2023-01-21T02:58:08.987Z,1023
2023-01-21T02:59:08.586Z,1023
2023-01-21T03:00:09.389Z,1023
2023-01-21T03:01:08.695Z,1023
2023-01-21T03:02:08.742Z,1023
2023-01-21T03:03:08.518Z,1023
2023-01-21T03:04:08.986Z,1023
2023-01-21T03:05:08.472Z,1023
2023-01-21T03:06:09.602Z,1023
2023-01-21T03:07:08.475Z,1023
2023-01-21T03:08:08.474Z,1023
2023-01-21T03:09:09.533Z,1023
2023-01-21T03:10:09.916Z,1023
2023-01-21T03:11:09.670Z,1023
2023-01-21T03:12:08.611Z,1023
2023-01-21T03:13:08.460Z,1023
2023-01-21T03:14:09.269Z,1023
2023-01-21T03:15:09.641Z,1023
2023-01-21T03:16:07.322Z,1023
2023-01-21T03:17:09.273Z,1023
2023-01-21T03:18:09.008Z,1023
2023-01-21T03:19:08.689Z,1023
2023-01-21T03:20:09.278Z,1023
2023-01-21T03:21:09.270Z,1023
2023-01-21T03:22:09.539Z,1023
2023-01-21T03:23:09.288Z,1023
2023-01-21T03:24:10.206Z,1023
2023-01-21T03:25:09.027Z,1023
2023-01-21T03:26:09.143Z,1023
2023-01-21T03:27:09.027Z,1024
2023-01-21T03:28:08.460Z,1024
2023-01-21T03:29:09.031Z,1023
2023-01-21T03:30:09.864Z,1023
2023-01-21T03:31:08.796Z,1023
2023-01-21T03:32:09.626Z,1023
2023-01-21T03:33:08.607Z,1024
2023-01-21T03:34:10.170Z,1024
2023-01-21T03:35:09.161Z,1023
2023-01-21T03:36:08.735Z,1024
2023-01-21T03:37:09.033Z,1024
2023-01-21T03:38:08.309Z,1024
2023-01-21T03:39:09.159Z,1024
2023-01-21T03:40:09.044Z,1024
2023-01-21T03:41:09.160Z,1024
2023-01-21T03:42:08.864Z,1024
2023-01-21T03:43:08.709Z,1024
2023-01-21T03:44:09.303Z,1024
2023-01-21T03:45:08.466Z,1024
2023-01-21T03:46:10.148Z,1024
2023-01-21T03:47:09.052Z,1024
2023-01-21T03:48:09.170Z,1024
2023-01-21T03:49:09.045Z,1024
2023-01-21T03:50:09.312Z,1024
2023-01-21T03:51:10.667Z,1024
2023-01-21T03:52:09.599Z,1024
2023-01-21T03:53:09.445Z,1024
2023-01-21T03:54:08.447Z,1024
2023-01-21T03:55:09.796Z,1024
2023-01-21T03:56:09.662Z,1024
2023-01-21T03:57:09.953Z,1024
2023-01-21T03:58:10.387Z,1024
2023-01-21T03:59:09.601Z,1024
2023-01-21T04:00:08.276Z,1024
2023-01-21T04:01:07.367Z,1024
2023-01-21T04:02:09.118Z,1024
2023-01-21T04:03:09.447Z,1024
2023-01-21T04:04:09.477Z,1024
2023-01-21T04:05:08.919Z,1024
2023-01-21T04:06:09.904Z,1024
2023-01-21T04:07:09.831Z,1024
2023-01-21T04:08:09.425Z,1024
2023-01-21T04:09:08.460Z,1024
2023-01-21T04:10:09.089Z,1024
2023-01-21T04:11:08.443Z,1024
2023-01-21T04:12:09.665Z,1024
2023-01-21T04:13:09.328Z,1024
2023-01-21T04:14:08.695Z,1024
2023-01-21T04:15:09.192Z,1024
2023-01-21T04:16:08.563Z,1024
2023-01-21T04:17:09.226Z,1024
2023-01-21T04:18:08.513Z,1024
2023-01-21T04:19:09.214Z,1024
2023-01-21T04:20:09.205Z,1024
2023-01-21T04:21:08.717Z,1024
2023-01-21T04:22:09.062Z,1024
2023-01-21T04:23:07.987Z,1024
2023-01-21T04:24:09.064Z,1024
2023-01-21T04:25:09.607Z,1024
2023-01-21T04:26:08.571Z,1024
2023-01-21T04:27:09.072Z,1024
2023-01-21T04:28:09.211Z,1024
2023-01-21T04:29:09.776Z,1024
2023-01-21T04:30:09.360Z,1024
2023-01-21T04:31:09.275Z,1024
2023-01-21T04:32:08.945Z,1024
2023-01-21T04:33:09.072Z,1024
2023-01-21T04:34:11.789Z,1024
2023-01-21T04:35:08.604Z,1024
2023-01-21T04:36:09.226Z,1024
2023-01-21T04:37:08.542Z,1024
2023-01-21T04:38:08.545Z,1024
2023-01-21T04:39:09.082Z,1024
2023-01-21T04:40:09.931Z,1024
2023-01-21T04:41:09.652Z,1024
2023-01-21T04:42:08.688Z,1024
2023-01-21T04:43:08.724Z,1024
2023-01-21T04:44:08.441Z,1024
2023-01-21T04:45:09.088Z,1024
2023-01-21T04:46:08.955Z,1024
2023-01-21T04:47:09.629Z,1024
2023-01-21T04:48:09.075Z,1024
2023-01-21T04:49:09.497Z,1024
2023-01-21T04:50:08.629Z,1024
2023-01-21T04:51:08.757Z,1024
2023-01-21T04:52:09.237Z,1024
2023-01-21T04:53:09.648Z,1024
2023-01-21T04:54:09.530Z,1024
2023-01-21T04:55:09.099Z,1024
2023-01-21T04:56:08.694Z,1024
2023-01-21T04:57:09.693Z,1024
2023-01-21T04:58:08.461Z,1024
2023-01-21T04:59:09.612Z,1024
2023-01-21T05:00:08.698Z,1024
2023-01-21T05:01:08.534Z,1024
2023-01-21T05:02:09.746Z,1024
2023-01-21T05:03:08.529Z,1024
2023-01-21T05:04:08.719Z,1024
2023-01-21T05:05:09.382Z,1024
2023-01-21T05:06:08.445Z,1024
2023-01-21T05:07:08.429Z,1024
2023-01-21T05:09:09.509Z,1024
2023-01-21T05:10:09.263Z,1024
2023-01-21T05:11:08.701Z,1024
2023-01-21T05:12:09.114Z,1024
2023-01-21T05:13:09.001Z,1024
2023-01-21T05:14:08.656Z,1024
2023-01-21T05:15:09.218Z,1024
2023-01-21T05:16:09.042Z,1024
2023-01-21T05:17:08.593Z,1024
2023-01-21T05:18:08.500Z,1024
2023-01-21T05:19:08.611Z,1024
2023-01-21T05:20:08.511Z,1025
2023-01-21T05:21:09.152Z,1024
2023-01-21T05:22:08.635Z,1024
2023-01-21T05:23:09.673Z,1025
2023-01-21T05:24:08.438Z,1024
2023-01-21T05:25:08.747Z,1025
2023-01-21T05:26:09.686Z,1025
2023-01-21T05:27:08.700Z,1025
2023-01-21T05:28:09.270Z,1025
2023-01-21T05:29:09.001Z,1025
2023-01-21T05:30:09.139Z,1025
2023-01-21T05:31:07.941Z,1025
2023-01-21T05:32:09.273Z,1025
2023-01-21T05:33:08.500Z,1025
2023-01-21T05:34:08.676Z,1025
2023-01-21T05:35:08.593Z,1025
2023-01-21T05:36:09.277Z,1025
2023-01-21T05:37:09.279Z,1025
2023-01-21T05:38:09.278Z,1025
2023-01-21T05:39:08.980Z,1025
2023-01-21T05:40:09.146Z,1025
2023-01-21T05:41:08.428Z,1025
2023-01-21T05:42:09.686Z,1025
2023-01-21T05:43:08.598Z,1025
2023-01-21T05:44:09.547Z,1025
2023-01-21T05:45:09.154Z,1025
2023-01-21T05:46:09.182Z,1025
2023-01-21T05:47:09.766Z,1025
2023-01-21T05:48:08.581Z,1025
2023-01-21T05:49:08.596Z,1025
2023-01-21T05:50:09.535Z,1025
2023-01-21T05:51:09.777Z,1025
2023-01-21T05:52:09.285Z,1025
2023-01-21T05:53:08.822Z,1025
2023-01-21T05:54:09.118Z,1025
2023-01-21T05:55:09.151Z,1025
2023-01-21T05:56:09.689Z,1025
2023-01-21T05:57:09.715Z,1025
2023-01-21T05:58:09.292Z,1025
2023-01-21T05:59:08.768Z,1025
2023-01-21T06:00:09.159Z,1025
2023-01-21T06:01:09.292Z,1025
2023-01-21T06:02:09.025Z,1025
2023-01-21T06:03:08.683Z,1025
2023-01-21T06:04:08.691Z,1025
2023-01-21T06:05:09.439Z,1025
2023-01-21T06:06:09.173Z,1025
2023-01-21T06:07:08.431Z,1025
2023-01-21T06:08:09.575Z,1025
2023-01-21T06:09:09.308Z,1025
2023-01-21T06:10:08.636Z,1025
2023-01-21T06:11:09.981Z,1025
2023-01-21T06:12:09.427Z,1025
2023-01-21T06:13:09.313Z,1025
2023-01-21T06:14:07.987Z,1025
2023-01-21T06:16:09.378Z,1025
2023-01-21T06:17:08.662Z,1025
2023-01-21T06:18:09.452Z,1025
2023-01-21T06:19:09.176Z,1025
2023-01-21T06:20:08.488Z,1025
2023-01-21T06:21:09.951Z,1025
2023-01-21T06:22:09.454Z,1025
2023-01-21T06:23:09.467Z,1025
2023-01-21T06:24:09.174Z,1025
2023-01-21T06:25:08.646Z,1025
2023-01-21T06:26:08.832Z,1025
2023-01-21T06:27:08.593Z,1025
2023-01-21T06:28:10.549Z,1025
2023-01-21T06:29:08.452Z,1025
2023-01-21T06:30:08.621Z,1025
2023-01-21T06:31:09.658Z,1025
2023-01-21T06:32:09.475Z,1025
2023-01-21T06:33:08.730Z,1025
2023-01-21T06:34:09.609Z,1025
2023-01-21T06:35:08.469Z,1025
2023-01-21T06:36:09.466Z,1025
2023-01-21T06:37:07.871Z,1025
2023-01-21T06:38:09.737Z,1025
2023-01-21T06:39:09.481Z,1025
2023-01-21T06:40:09.061Z,1025
2023-01-21T06:41:09.333Z,1025
2023-01-21T06:42:08.534Z,1026
2023-01-21T06:43:08.424Z,1026
2023-01-21T06:44:09.323Z,1026
2023-01-21T06:45:08.521Z,1026
2023-01-21T06:46:08.892Z,1026
2023-01-21T06:47:09.831Z,1026
2023-01-21T06:48:08.447Z,1026
2023-01-21T06:49:09.219Z,1026
2023-01-21T06:50:09.625Z,1026
2023-01-21T06:51:09.253Z,1026
2023-01-21T06:52:08.513Z,1026
2023-01-21T06:53:09.217Z,1026
2023-01-21T06:54:10.000Z,1026
2023-01-21T06:55:08.746Z,1026
2023-01-21T06:56:08.604Z,1026
2023-01-21T06:57:09.090Z,1026
2023-01-21T06:58:08.894Z,1026
2023-01-21T06:59:09.882Z,1026
2023-01-21T07:00:09.356Z,1026
2023-01-21T07:01:08.699Z,1026
2023-01-21T07:02:08.658Z,1026
2023-01-21T07:03:09.218Z,1026
2023-01-21T07:04:08.811Z,1026
2023-01-21T07:05:08.684Z,1026
2023-01-21T07:06:09.624Z,1026
2023-01-21T07:07:08.829Z,1026
2023-01-21T07:08:09.623Z,1026
2023-01-21T07:09:08.424Z,1026
2023-01-21T07:10:09.630Z,1026
2023-01-21T07:11:08.640Z,1026
2023-01-21T07:12:08.896Z,1026
2023-01-21T07:13:09.629Z,1026
2023-01-21T07:14:10.088Z,1026
2023-01-21T07:15:09.373Z,1026
2023-01-21T07:16:09.306Z,1026
2023-01-21T07:17:09.365Z,1026
2023-01-21T07:18:08.859Z,1026
2023-01-21T07:19:08.418Z,1026
2023-01-21T07:20:08.264Z,1026
2023-01-21T07:21:08.634Z,1026
2023-01-21T07:22:08.769Z,1026
2023-01-21T07:23:08.836Z,1026
2023-01-21T07:24:09.555Z,1026
2023-01-21T07:25:08.431Z,1026
2023-01-21T07:26:09.239Z,1026
2023-01-21T07:27:08.607Z,1026
2023-01-21T07:28:09.243Z,1026
2023-01-21T07:29:08.531Z,1026
2023-01-21T07:30:09.099Z,1026
2023-01-21T07:31:08.821Z,1026
2023-01-21T07:32:08.766Z,1026
2023-01-21T07:33:08.437Z,1026
2023-01-21T07:34:08.755Z,1026
2023-01-21T07:35:09.086Z,1026
2023-01-21T07:36:09.259Z,1026
2023-01-21T07:37:09.390Z,1026
2023-01-21T07:38:08.474Z,1026
2023-01-21T07:39:08.587Z,1026
2023-01-21T07:40:09.252Z,1026
2023-01-21T07:41:09.394Z,1026
2023-01-21T07:42:08.603Z,1026
2023-01-21T07:43:08.706Z,1026
2023-01-21T07:44:08.009Z,1026
2023-01-21T07:45:08.520Z,1026
2023-01-21T07:46:08.599Z,1026
2023-01-21T07:47:08.934Z,1026
2023-01-21T07:48:08.940Z,1026
2023-01-21T07:49:09.537Z,1026
2023-01-21T07:50:09.912Z,1026
2023-01-21T07:51:08.553Z,1026
2023-01-21T07:52:09.545Z,1026
2023-01-21T07:53:08.789Z,1026
2023-01-21T07:54:08.826Z,1026
2023-01-21T07:55:11.105Z,1026
2023-01-21T07:56:09.910Z,1026
2023-01-21T07:57:09.868Z,1026
2023-01-21T07:58:08.493Z,1026
2023-01-21T07:59:09.897Z,1026
2023-01-21T08:00:10.840Z,1026
2023-01-21T08:01:08.428Z,1026
2023-01-21T08:02:09.016Z,1026
2023-01-21T08:03:09.015Z,1026
2023-01-21T08:04:09.921Z,1026
2023-01-21T08:05:08.461Z,1026
2023-01-21T08:06:08.959Z,1026
2023-01-21T08:07:10.047Z,1026
2023-01-21T08:08:08.681Z,1026
2023-01-21T08:09:08.531Z,1026
2023-01-21T08:10:08.570Z,1026
2023-01-21T08:11:09.287Z,1026
2023-01-21T08:12:09.393Z,1026
2023-01-21T08:13:08.946Z,1026
2023-01-21T08:14:09.691Z,1026
2023-01-21T08:15:08.502Z,1026
2023-01-21T08:16:09.433Z,1026
2023-01-21T08:17:08.839Z,1026
2023-01-21T08:18:08.457Z,1026
2023-01-21T08:19:08.419Z,1026
2023-01-21T08:20:09.307Z,1026
2023-01-21T08:21:08.397Z,1026
2023-01-21T08:22:08.703Z,1026
2023-01-21T08:23:09.572Z,1026
2023-01-21T08:24:08.967Z,1026
2023-01-21T08:25:08.957Z,1026
2023-01-21T08:26:09.554Z,1027
2023-01-21T08:27:07.864Z,1027
2023-01-21T08:28:08.536Z,1027
2023-01-21T08:30:08.436Z,1027
2023-01-21T08:31:09.266Z,1027
2023-01-21T08:32:09.179Z,1027
2023-01-21T08:33:09.290Z,1027
2023-01-21T08:34:09.209Z,1027
2023-01-21T08:35:08.446Z,1027
2023-01-21T08:36:08.532Z,1027
2023-01-21T08:37:09.290Z,1027
2023-01-21T08:38:08.558Z,1027
2023-01-21T08:39:08.765Z,1027
2023-01-21T08:40:09.199Z,1027
2023-01-21T08:41:09.290Z,1027
2023-01-21T08:42:08.666Z,1027
2023-01-21T08:43:08.795Z,1027
2023-01-21T08:44:08.416Z,1027
2023-01-21T08:45:08.565Z,1027
2023-01-21T08:46:09.463Z,1027
2023-01-21T08:47:08.396Z,1027
2023-01-21T08:48:09.194Z,1027
2023-01-21T08:49:09.600Z,1027
2023-01-21T08:50:08.840Z,1027
2023-01-21T08:51:09.032Z,1027
2023-01-21T08:52:08.548Z,1027
2023-01-21T08:53:08.957Z,1027
2023-01-21T08:54:08.958Z,1027
2023-01-21T08:55:09.881Z,1027
2023-01-21T08:56:08.650Z,1027
2023-01-21T08:57:09.230Z,1027
2023-01-21T08:58:09.469Z,1027
2023-01-21T08:59:08.795Z,1027
2023-01-21T09:00:08.493Z,1027
2023-01-21T09:01:08.630Z,1027
2023-01-21T09:02:09.661Z,1027
2023-01-21T09:03:08.923Z,1027
2023-01-21T09:04:09.025Z,1027
2023-01-21T09:05:08.924Z,1027
2023-01-21T09:06:09.345Z,1027
2023-01-21T09:07:09.458Z,1027
2023-01-21T09:08:09.738Z,1027
2023-01-21T09:09:08.938Z,1027
2023-01-21T09:10:08.870Z,1027
2023-01-21T09:11:08.871Z,1027
2023-01-21T09:12:09.349Z,1027
2023-01-21T09:13:08.470Z,1027
2023-01-21T09:14:08.747Z,1027
2023-01-21T09:15:08.482Z,1027
2023-01-21T09:16:09.271Z,1027
2023-01-21T09:17:09.009Z,1027
2023-01-21T09:18:08.655Z,1027
2023-01-21T09:19:08.536Z,1027
2023-01-21T09:20:09.510Z,1027
2023-01-21T09:21:08.409Z,1027
2023-01-21T09:22:09.366Z,1027
2023-01-21T09:23:09.959Z,1027
2023-01-21T09:24:09.361Z,1027
2023-01-21T09:25:08.979Z,1027
2023-01-21T09:26:08.849Z,1027
2023-01-21T09:27:08.517Z,1027
2023-01-21T09:28:09.623Z,1027
2023-01-21T09:29:09.374Z,1027
2023-01-21T09:30:09.508Z,1027
2023-01-21T09:31:08.979Z,1027
2023-01-21T09:32:08.390Z,1027
2023-01-21T09:33:09.193Z,1027
2023-01-21T09:34:07.260Z,1027
2023-01-21T09:35:08.597Z,1027
2023-01-21T09:37:08.809Z,1027
2023-01-21T09:38:08.968Z,1027
2023-01-21T09:39:08.513Z,1027
2023-01-21T09:40:08.412Z,1027
2023-01-21T09:41:08.533Z,1027
2023-01-21T09:42:08.749Z,1027
2023-01-21T09:43:08.398Z,1027
2023-01-21T09:44:09.523Z,1027
2023-01-21T09:45:09.083Z,1027
2023-01-21T09:46:09.052Z,1027
2023-01-21T09:47:09.384Z,1027
2023-01-21T09:48:09.210Z,1027
2023-01-21T09:49:09.243Z,1027
2023-01-21T09:50:08.499Z,1027
2023-01-21T09:51:08.522Z,1027
2023-01-21T09:52:09.378Z,1027
2023-01-21T09:53:09.796Z,1027
2023-01-21T09:54:09.246Z,1027
2023-01-21T09:55:08.729Z,1027
2023-01-21T09:56:08.874Z,1028
2023-01-21T09:57:08.428Z,1028
2023-01-21T09:58:07.388Z,1028
2023-01-21T09:59:09.268Z,1028
2023-01-21T10:00:08.504Z,1028
2023-01-21T10:01:09.109Z,1028
2023-01-21T10:02:08.669Z,1028
2023-01-21T10:03:09.018Z,1028
2023-01-21T10:04:08.607Z,1028
2023-01-21T10:05:08.824Z,1028
2023-01-21T10:06:08.626Z,1028
2023-01-21T10:07:08.601Z,1028
2023-01-21T10:08:09.130Z,1028
2023-01-21T10:09:10.025Z,1028
2023-01-21T10:10:08.738Z,1028
2023-01-21T10:11:09.675Z,1028
2023-01-21T10:12:08.909Z,1028
2023-01-21T10:13:08.720Z,1028
2023-01-21T10:14:09.309Z,1028
2023-01-21T10:15:09.699Z,1028
2023-01-21T10:16:09.412Z,1028
2023-01-21T10:17:08.732Z,1028
2023-01-21T10:18:09.007Z,1028
2023-01-21T10:19:09.089Z,1028
2023-01-21T10:20:09.001Z,1028
2023-01-21T10:21:08.916Z,1028
2023-01-21T10:22:08.433Z,1028
2023-01-21T10:23:09.127Z,1028
2023-01-21T10:24:08.813Z,1028
2023-01-21T10:25:09.692Z,1028
2023-01-21T10:26:08.857Z,1028
2023-01-21T10:27:08.417Z,1028
2023-01-21T10:28:09.561Z,1028
2023-01-21T10:29:09.282Z,1028
2023-01-21T10:30:09.024Z,1028
2023-01-21T10:31:08.595Z,1028
2023-01-21T10:32:09.707Z,1028
2023-01-21T10:33:08.812Z,1028
2023-01-21T10:34:08.721Z,1028
2023-01-21T10:35:09.571Z,1028
2023-01-21T10:36:08.912Z,1028
2023-01-21T10:37:09.431Z,1028
2023-01-21T10:38:09.973Z,1028
2023-01-21T10:39:08.783Z,1028
2023-01-21T10:40:09.434Z,1028
2023-01-21T10:41:08.067Z,1028
2023-01-21T10:42:09.974Z,1028
2023-01-21T10:44:09.170Z,1028
2023-01-21T10:45:08.671Z,1028
2023-01-21T10:46:09.117Z,1028
2023-01-21T10:47:08.561Z,1028
2023-01-21T10:48:08.590Z,1028
2023-01-21T10:49:08.882Z,1028
2023-01-21T10:50:08.590Z,1028
2023-01-21T10:51:09.964Z,1028
2023-01-21T10:52:09.284Z,1028
2023-01-21T10:53:08.692Z,1028
2023-01-21T10:54:09.325Z,1028
2023-01-21T10:55:09.325Z,1028
2023-01-21T10:56:08.599Z,1028
2023-01-21T10:57:08.992Z,1028
2023-01-21T10:58:09.718Z,1028
2023-01-21T10:59:09.048Z,1028
2023-01-21T11:00:09.020Z,1028
2023-01-21T11:01:09.605Z,1028
2023-01-21T11:02:09.234Z,1028
2023-01-21T11:03:08.959Z,1028
2023-01-21T11:04:09.028Z,1028
2023-01-21T11:05:07.768Z,1028
2023-01-21T11:06:09.460Z,1028
2023-01-21T11:07:09.316Z,1028
2023-01-21T11:08:09.063Z,1028
2023-01-21T11:09:08.478Z,1028
2023-01-21T11:10:08.874Z,1028
2023-01-21T11:11:09.122Z,1028
2023-01-21T11:12:09.732Z,1028
2023-01-21T11:13:10.545Z,1028
2023-01-21T11:14:09.427Z,1028
2023-01-21T11:15:08.451Z,1028
2023-01-21T11:16:10.012Z,1028
2023-01-21T11:17:08.868Z,1028
2023-01-21T11:18:08.875Z,1028
2023-01-21T11:19:08.884Z,1028
2023-01-21T11:20:08.600Z,1028
2023-01-21T11:21:09.266Z,1028
2023-01-21T11:22:08.636Z,1028
2023-01-21T11:23:09.164Z,1028
2023-01-21T11:24:09.015Z,1028
2023-01-21T11:25:09.097Z,1028
2023-01-21T11:26:10.314Z,1028
2023-01-21T11:27:08.427Z,1028
2023-01-21T11:28:09.141Z,1028
2023-01-21T11:29:07.841Z,1028
2023-01-21T11:30:31.462Z,1028
2023-01-21T11:31:08.974Z,1028
2023-01-21T11:32:08.615Z,1028
2023-01-21T11:33:08.872Z,1028
2023-01-21T11:34:09.540Z,1028
2023-01-21T11:35:10.513Z,1028
2023-01-21T11:36:09.178Z,1028
2023-01-21T11:37:09.685Z,1028
2023-01-21T11:38:09.445Z,1028
2023-01-21T11:39:09.589Z,1028
2023-01-21T11:40:08.402Z,1028
2023-01-21T11:41:10.924Z,1028
2023-01-21T11:42:08.406Z,1028
2023-01-21T11:43:09.454Z,1028
2023-01-21T11:44:08.877Z,1028
2023-01-21T11:45:08.635Z,1028
2023-01-21T11:46:09.222Z,1028
2023-01-21T11:47:08.428Z,1028
2023-01-21T11:48:08.367Z,1028
2023-01-21T11:49:08.414Z,1028
2023-01-21T11:50:07.199Z,1028
2023-01-21T11:51:08.490Z,1028
2023-01-21T11:52:08.683Z,1028
2023-01-21T11:53:09.425Z,1028
2023-01-21T11:54:09.292Z,1028
2023-01-21T11:55:08.593Z,1028
2023-01-21T11:56:08.400Z,1028
2023-01-21T11:57:08.808Z,1028
2023-01-21T11:58:08.723Z,1028
2023-01-21T11:59:08.439Z,1028
2023-01-21T12:00:08.669Z,1028
2023-01-21T12:01:09.015Z,1028
2023-01-21T12:02:08.558Z,1028
2023-01-21T12:03:09.738Z,1028
2023-01-21T12:04:08.935Z,1028
2023-01-21T12:05:09.741Z,1028
2023-01-21T12:06:09.474Z,1028
2023-01-21T12:07:09.107Z,1028
2023-01-21T12:08:09.101Z,1028
2023-01-21T12:09:09.109Z,1028
2023-01-21T12:10:09.471Z,1028
2023-01-21T12:11:09.619Z,1028
2023-01-21T12:12:07.572Z,1028
2023-01-21T12:13:09.125Z,1028
2023-01-21T12:14:08.890Z,1028
2023-01-21T12:15:09.843Z,1028
2023-01-21T12:16:08.494Z,1028
2023-01-21T12:17:09.051Z,1028
2023-01-21T12:18:08.895Z,1028
2023-01-21T12:19:08.975Z,1028
2023-01-21T12:20:09.161Z,1028
2023-01-21T12:21:09.093Z,1028
2023-01-21T12:22:09.610Z,1028
2023-01-21T12:23:09.020Z,1028
2023-01-21T12:24:08.986Z,1028
2023-01-21T12:25:08.603Z,1028
2023-01-21T12:26:08.566Z,1028
2023-01-21T12:27:09.101Z,1027
2023-01-21T12:28:09.116Z,1027
2023-01-21T12:29:08.735Z,1027
2023-01-21T12:30:09.169Z,1027
2023-01-21T12:31:09.640Z,1027
2023-01-21T12:32:08.594Z,1027
2023-01-21T12:33:09.061Z,1028
2023-01-21T12:34:09.496Z,1028
2023-01-21T12:35:09.201Z,1028
2023-01-21T12:36:08.875Z,1028
2023-01-21T12:37:09.496Z,1028
2023-01-21T12:38:08.372Z,1027
2023-01-21T12:39:09.060Z,1028
2023-01-21T12:40:08.905Z,1028
2023-01-21T12:41:09.910Z,1028
2023-01-21T12:42:09.927Z,1028
2023-01-21T12:43:08.894Z,1028
2023-01-21T12:44:09.135Z,1028
2023-01-21T12:45:08.865Z,1027
2023-01-21T12:46:08.921Z,1027
2023-01-21T12:47:09.233Z,1027
2023-01-21T12:48:08.838Z,1027
2023-01-21T12:49:09.060Z,1027
2023-01-21T12:50:10.224Z,1027
2023-01-21T12:51:08.804Z,1027
2023-01-21T12:52:10.048Z,1027
2023-01-21T12:53:08.686Z,1027
2023-01-21T12:54:08.459Z,1028
2023-01-21T12:55:09.772Z,1028
2023-01-21T12:56:09.396Z,1028
2023-01-21T12:58:08.400Z,1028
2023-01-21T12:59:08.424Z,1028
2023-01-21T13:00:08.977Z,1028
2023-01-21T13:01:08.608Z,1028
2023-01-21T13:02:09.844Z,1028
2023-01-21T13:03:08.413Z,1028
2023-01-21T13:04:08.773Z,1028
2023-01-21T13:05:08.943Z,1028
2023-01-21T13:06:09.626Z,1028
2023-01-21T13:07:09.540Z,1028
2023-01-21T13:08:08.355Z,1028
2023-01-21T13:09:11.497Z,1028
2023-01-21T13:10:08.461Z,1028
2023-01-21T13:11:08.819Z,1028
2023-01-21T13:12:08.406Z,1028
2023-01-21T13:13:09.104Z,1028
2023-01-21T13:14:09.639Z,1028
2023-01-21T13:15:08.357Z,1028
2023-01-21T13:16:10.027Z,1028
2023-01-21T13:17:09.227Z,1028
2023-01-21T13:18:08.905Z,1028
2023-01-21T13:19:09.545Z,1028
2023-01-21T13:20:09.746Z,1028
2023-01-21T13:21:09.816Z,1028
2023-01-21T13:22:08.910Z,1028
2023-01-21T13:23:08.464Z,1028
2023-01-21T13:24:08.527Z,1028
2023-01-21T13:25:08.843Z,1028